createdAt,value
2022-09-20T00:01:32.600Z,1.10
2022-09-20T00:04:05.528Z,1.13
2022-09-20T00:06:33.888Z,1.70
2022-09-20T00:09:03.243Z,1.40
2022-09-20T00:11:33.223Z,1.10
2022-09-20T00:14:02.215Z,1.37
2022-09-20T00:16:35.627Z,1.40
2022-09-20T00:19:05.174Z,1.40
2022-09-20T00:21:36.527Z,1.70
2022-09-20T00:24:04.509Z,1.40
2022-09-20T00:26:31.946Z,1.30
2022-09-20T00:29:00.324Z,2.03
2022-09-20T00:31:27.997Z,1.70
2022-09-20T00:34:15.580Z,1.50
2022-09-20T00:36:44.286Z,1.90
2022-09-20T00:39:13.517Z,1.87
2022-09-20T00:44:50.067Z,1.67
2022-09-20T00:47:28.297Z,1.70
2022-09-20T00:50:35.978Z,1.80
2022-09-20T00:53:14.412Z,1.70
2022-09-20T00:55:47.491Z,1.83
2022-09-20T00:58:15.521Z,1.60
2022-09-20T01:00:45.371Z,1.80
2022-09-20T01:03:16.160Z,2.03
2022-09-20T01:05:45.363Z,1.50
2022-09-20T01:08:13.205Z,1.85
2022-09-20T01:10:40.493Z,1.73
2022-09-20T01:13:08.587Z,2.10
2022-09-20T01:15:38.914Z,1.67
2022-09-20T01:18:08.612Z,1.87
2022-09-20T01:20:41.021Z,1.77
2022-09-20T01:23:15.955Z,1.53
2022-09-20T01:25:58.810Z,1.33
2022-09-20T01:28:28.814Z,1.80
2022-09-20T01:31:04.714Z,1.40
2022-09-20T01:33:34.860Z,1.60
2022-09-20T01:36:06.356Z,1.43
2022-09-20T01:38:40.112Z,1.60
2022-09-20T01:41:27.191Z,1.40
2022-09-20T01:44:09.629Z,1.80
2022-09-20T01:46:38.207Z,3.07
2022-09-20T01:49:33.770Z,2.08
2022-09-20T01:52:47.688Z,2.00
2022-09-20T01:56:03.218Z,2.10
2022-09-20T01:58:46.967Z,1.83
2022-09-20T02:01:39.043Z,2.30
2022-09-20T02:04:37.860Z,1.97
2022-09-20T02:07:23.447Z,2.10
2022-09-20T02:10:11.241Z,1.90
2022-09-20T02:12:56.162Z,2.10
2022-09-20T02:15:41.511Z,2.40
2022-09-20T02:18:31.831Z,1.97
2022-09-20T02:21:24.183Z,2.20
2022-09-20T02:24:19.706Z,2.07
2022-09-20T02:27:16.785Z,2.10
2022-09-20T02:30:21.995Z,2.13
2022-09-20T02:33:26.887Z,1.60
2022-09-20T02:36:27.334Z,2.20
2022-09-20T02:39:03.199Z,1.87
2022-09-20T02:41:33.906Z,2.00
2022-09-20T02:44:22.552Z,1.80
2022-09-20T02:49:41.612Z,2.10
2022-09-20T02:52:56.803Z,1.80
2022-09-20T02:55:29.901Z,2.00
2022-09-20T02:58:35.590Z,1.90
2022-09-20T03:01:24.410Z,2.00
2022-09-20T03:04:18.300Z,2.27
2022-09-20T03:06:53.681Z,2.00
2022-09-20T03:09:39.959Z,2.10
2022-09-20T03:12:33.606Z,1.93
2022-09-20T03:15:22.856Z,2.10
2022-09-20T03:18:08.497Z,2.30
2022-09-20T03:20:52.427Z,2.33
2022-09-20T03:24:10.499Z,2.23
2022-09-20T03:26:55.370Z,1.98
2022-09-20T03:29:48.521Z,2.30
2022-09-20T03:32:31.378Z,2.10
2022-09-20T03:35:01.885Z,2.10
2022-09-20T03:37:44.776Z,2.30
2022-09-20T03:40:19.700Z,2.10
2022-09-20T03:42:52.245Z,2.03
2022-09-20T03:45:31.871Z,2.43
2022-09-20T03:48:14.819Z,2.47
2022-09-20T03:51:00.779Z,2.60
2022-09-20T03:54:04.377Z,2.60
2022-09-20T03:56:59.681Z,2.80
2022-09-20T03:59:56.386Z,3.30
2022-09-20T04:02:31.459Z,3.33
2022-09-20T04:05:04.007Z,3.13
2022-09-20T04:08:07.412Z,2.83
2022-09-20T04:10:47.024Z,2.80
2022-09-20T04:13:41.074Z,3.70
2022-09-20T04:16:32.461Z,3.67
2022-09-20T04:19:18.355Z,3.10
2022-09-20T04:21:59.427Z,3.40
2022-09-20T04:24:57.282Z,3.60
2022-09-20T04:27:43.130Z,2.28
2022-09-20T04:30:30.408Z,3.53
2022-09-20T04:33:06.673Z,3.70
2022-09-20T04:36:02.513Z,3.73
2022-09-20T04:38:30.665Z,3.33
2022-09-20T04:40:58.282Z,2.97
2022-09-20T04:43:51.356Z,4.00
2022-09-20T04:46:44.281Z,4.67
2022-09-20T04:49:30.241Z,4.43
2022-09-20T04:52:07.007Z,4.43
2022-09-20T04:54:56.155Z,4.37
2022-09-20T04:57:23.821Z,3.17
2022-09-20T05:00:03.321Z,3.70
2022-09-20T05:02:47.209Z,2.80
2022-09-20T05:05:17.503Z,4.33
2022-09-20T05:08:24.043Z,4.20
2022-09-20T05:11:04.481Z,4.07
2022-09-20T05:13:38.831Z,4.67
2022-09-20T05:16:26.684Z,3.70
2022-09-20T05:19:25.429Z,4.18
2022-09-20T05:21:59.918Z,4.50
2022-09-20T05:24:52.981Z,3.10
2022-09-20T05:27:29.609Z,2.57
2022-09-20T05:30:04.926Z,2.10
2022-09-20T05:32:53.005Z,2.43
2022-09-20T05:36:02.846Z,2.20
2022-09-20T05:38:34.737Z,2.40
2022-09-20T05:41:32.663Z,2.03
2022-09-20T05:44:18.542Z,1.53
2022-09-20T05:47:18.952Z,1.80
2022-09-20T05:50:20.250Z,1.80
2022-09-20T05:53:07.075Z,1.80
2022-09-20T05:56:22.736Z,2.00
2022-09-20T05:59:27.723Z,1.77
2022-09-20T06:02:00.528Z,2.20
2022-09-20T06:04:58.214Z,1.77
2022-09-20T06:07:49.856Z,1.90
2022-09-20T06:10:42.970Z,1.70
2022-09-20T06:13:41.544Z,2.50
2022-09-20T06:16:18.740Z,1.70
2022-09-20T06:18:57.745Z,1.57
2022-09-20T06:21:36.296Z,1.80
2022-09-20T06:24:12.902Z,1.62
2022-09-20T06:26:44.758Z,1.60
2022-09-20T06:29:14.450Z,1.70
2022-09-20T06:31:42.191Z,1.30
2022-09-20T06:34:13.488Z,1.30
2022-09-20T06:37:09.585Z,1.40
2022-09-20T06:40:01.854Z,1.57
2022-09-20T06:42:30.082Z,1.40
2022-09-20T06:44:58.313Z,1.52
2022-09-20T06:47:27.401Z,1.23
2022-09-20T06:49:55.706Z,1.30
2022-09-20T06:52:23.480Z,1.95
2022-09-20T06:54:54.894Z,1.47
2022-09-20T06:57:38.036Z,1.40
2022-09-20T07:00:07.218Z,1.40
2022-09-20T07:02:34.975Z,1.40
2022-09-20T07:05:02.377Z,1.33
2022-09-20T07:07:29.789Z,1.40
2022-09-20T07:09:58.684Z,1.07
2022-09-20T07:12:26.200Z,1.08
2022-09-20T07:14:53.595Z,1.10
2022-09-20T07:17:22.343Z,1.27
2022-09-20T07:19:49.657Z,1.40
2022-09-20T07:22:17.268Z,1.20
2022-09-20T07:24:45.119Z,1.70
2022-09-20T07:27:12.987Z,1.20
2022-09-20T07:29:41.344Z,1.50
2022-09-20T07:32:09.315Z,1.02
2022-09-20T07:34:36.678Z,1.00
2022-09-20T07:37:04.105Z,1.10
2022-09-20T07:39:31.813Z,1.00
2022-09-20T07:41:59.318Z,0.90
2022-09-20T07:44:28.023Z,1.03
2022-09-20T07:46:58.276Z,1.20
2022-09-20T07:49:27.860Z,1.20
2022-09-20T07:51:56.026Z,1.40
2022-09-20T07:54:23.410Z,1.00
2022-09-20T07:56:50.829Z,1.20
2022-09-20T07:59:18.594Z,0.80
2022-09-20T08:01:46.179Z,1.20
2022-09-20T08:04:14.812Z,1.05
2022-09-20T08:06:44.632Z,0.93
2022-09-20T08:09:13.263Z,0.90
2022-09-20T08:11:42.980Z,1.83
2022-09-20T08:14:17.223Z,1.03
2022-09-20T08:16:47.549Z,1.10
2022-09-20T08:19:23.299Z,1.10
2022-09-20T08:21:53.553Z,0.57
2022-09-20T08:24:21.416Z,0.53
2022-09-20T08:26:48.848Z,0.80
2022-09-20T08:29:16.935Z,1.00
2022-09-20T08:31:44.501Z,1.00
2022-09-20T08:34:14.114Z,0.80
2022-09-20T08:36:47.044Z,0.90
2022-09-20T08:42:20.669Z,1.02
2022-09-20T08:45:35.586Z,0.77
2022-09-20T08:48:07.589Z,0.80
2022-09-20T08:50:37.547Z,0.80
2022-09-20T08:53:05.694Z,0.90
2022-09-20T08:55:36.958Z,0.73
2022-09-20T08:58:08.735Z,0.77
2022-09-20T09:00:38.336Z,1.10
2022-09-20T09:03:18.023Z,0.70
2022-09-20T09:05:50.123Z,2.40
2022-09-20T09:08:21.528Z,0.80
2022-09-20T09:10:54.334Z,0.70
2022-09-20T09:13:27.917Z,0.90
2022-09-20T09:16:03.420Z,0.73
2022-09-20T09:18:35.527Z,0.80
2022-09-20T09:21:05.126Z,1.00
2022-09-20T09:23:41.564Z,0.80
2022-09-20T09:26:18.868Z,0.53
2022-09-20T09:28:46.622Z,0.97
2022-09-20T09:31:28.360Z,0.90
2022-09-20T09:33:56.166Z,1.10
2022-09-20T09:36:25.882Z,0.90
2022-09-20T09:39:41.828Z,0.80
2022-09-20T09:42:26.000Z,0.80
2022-09-20T09:44:53.494Z,0.97
2022-09-20T09:47:29.157Z,1.20
2022-09-20T09:50:01.627Z,1.00
2022-09-20T09:52:33.552Z,1.17
2022-09-20T09:55:05.452Z,0.87
2022-09-20T09:57:59.115Z,0.77
2022-09-20T10:00:27.522Z,0.80
2022-09-20T10:03:21.290Z,0.60
2022-09-20T10:05:48.818Z,0.70
2022-09-20T10:08:19.369Z,0.80
2022-09-20T10:11:12.380Z,0.70
2022-09-20T10:14:06.556Z,0.90
2022-09-20T10:17:02.496Z,1.17
2022-09-20T10:19:36.045Z,0.67
2022-09-20T10:23:14.721Z,0.90
2022-09-20T10:25:55.261Z,0.98
2022-09-20T10:28:50.146Z,0.80
2022-09-20T10:31:44.339Z,0.60
2022-09-20T10:34:20.986Z,0.82
2022-09-20T10:36:59.711Z,0.60
2022-09-20T10:39:39.692Z,0.68
2022-09-20T10:42:48.502Z,1.00
2022-09-20T10:48:48.079Z,0.80
2022-09-20T10:51:25.343Z,2.00
2022-09-20T10:53:53.003Z,1.25
2022-09-20T10:56:37.158Z,0.70
2022-09-20T10:59:25.199Z,0.70
2022-09-20T11:02:36.715Z,0.77
2022-09-20T11:05:40.749Z,0.62
2022-09-20T11:08:13.486Z,0.62
2022-09-20T11:10:51.803Z,0.90
2022-09-20T11:13:38.563Z,0.70
2022-09-20T11:16:23.458Z,0.80
2022-09-20T11:19:27.146Z,0.50
2022-09-20T11:22:06.285Z,0.70
2022-09-20T11:24:41.159Z,0.77
2022-09-20T11:27:13.749Z,0.60
2022-09-20T11:29:47.956Z,0.60
2022-09-20T11:32:24.715Z,0.80
2022-09-20T11:35:00.298Z,0.65
2022-09-20T11:37:33.583Z,0.60
2022-09-20T11:40:18.533Z,0.60
2022-09-20T11:42:47.150Z,0.60
2022-09-20T11:45:14.655Z,0.80
2022-09-20T11:47:54.883Z,1.10
2022-09-20T11:50:57.327Z,1.15
2022-09-20T11:53:49.503Z,1.23
2022-09-20T11:56:32.363Z,0.80
2022-09-20T11:59:02.994Z,1.30
2022-09-20T12:01:43.063Z,0.80
2022-09-20T12:04:33.967Z,1.08
2022-09-20T12:07:19.077Z,0.95
2022-09-20T12:09:54.358Z,1.05
2022-09-20T12:12:41.872Z,0.93
2022-09-20T12:15:21.800Z,1.03
2022-09-20T12:17:49.844Z,0.80
2022-09-20T12:20:33.117Z,1.08
2022-09-20T12:23:41.405Z,1.20
2022-09-20T12:28:51.119Z,0.85
2022-09-20T12:31:19.095Z,0.70
2022-09-20T12:34:25.311Z,0.70
2022-09-20T12:36:56.209Z,0.82
2022-09-20T12:39:36.745Z,0.60
2022-09-20T12:42:24.655Z,1.00
2022-09-20T12:44:52.041Z,0.60
2022-09-20T12:47:24.458Z,0.88
2022-09-20T12:50:12.906Z,0.73
2022-09-20T12:55:30.142Z,0.65
2022-09-20T12:58:02.946Z,0.68
2022-09-20T13:00:57.545Z,1.10
2022-09-20T13:03:35.379Z,0.60
2022-09-20T13:06:09.096Z,0.75
2022-09-20T13:08:42.951Z,0.80
2022-09-20T13:11:19.519Z,0.80
2022-09-20T13:13:57.865Z,0.60
2022-09-20T13:16:31.993Z,0.90
2022-09-20T13:19:10.668Z,0.75
2022-09-20T13:21:42.509Z,0.77
2022-09-20T13:24:18.269Z,0.80
2022-09-20T13:26:48.164Z,0.70
2022-09-20T13:29:25.192Z,0.60
2022-09-20T13:31:52.669Z,0.68
2022-09-20T13:34:23.750Z,0.73
2022-09-20T13:36:58.521Z,0.80
2022-09-20T13:39:44.348Z,0.80
2022-09-20T13:42:19.944Z,1.23
2022-09-20T13:44:48.709Z,0.77
2022-09-20T13:47:26.377Z,0.80
2022-09-20T13:50:00.977Z,0.80
2022-09-20T13:52:31.176Z,0.70
2022-09-20T13:54:58.938Z,0.80
2022-09-20T13:57:30.731Z,0.82
2022-09-20T13:59:59.109Z,0.85
2022-09-20T14:02:32.133Z,0.80
2022-09-20T14:05:04.091Z,0.65
2022-09-20T14:07:33.014Z,0.70
2022-09-20T14:10:01.005Z,0.80
2022-09-20T14:12:28.698Z,1.02
2022-09-20T14:14:56.596Z,0.60
2022-09-20T14:17:25.810Z,1.25
2022-09-20T14:19:55.545Z,0.73
2022-09-20T14:22:26.991Z,0.60
2022-09-20T14:25:20.760Z,0.65
2022-09-20T14:27:48.314Z,0.70
2022-09-20T14:30:36.359Z,0.60
2022-09-20T14:33:06.509Z,0.80
2022-09-20T14:35:34.524Z,0.50
2022-09-20T14:38:10.558Z,1.00
2022-09-20T14:40:46.510Z,0.70
2022-09-20T14:43:22.726Z,1.58
2022-09-20T14:45:56.931Z,0.90
2022-09-20T14:48:45.734Z,0.75
2022-09-20T14:51:16.561Z,1.00
2022-09-20T14:53:48.746Z,0.98
2022-09-20T14:56:25.643Z,0.90
2022-09-20T14:59:06.706Z,1.00
2022-09-20T15:01:37.795Z,1.80
2022-09-20T15:04:10.097Z,1.05
2022-09-20T15:06:40.282Z,0.80
2022-09-20T15:09:12.464Z,0.65
2022-09-20T15:11:41.056Z,0.80
2022-09-20T15:14:08.551Z,0.90
2022-09-20T15:16:36.166Z,0.90
2022-09-20T15:19:05.979Z,0.90
2022-09-20T15:21:33.474Z,1.08
2022-09-20T15:24:01.017Z,1.10
2022-09-20T15:26:29.500Z,1.05
2022-09-20T15:28:56.850Z,1.62
2022-09-20T15:31:24.391Z,1.73
2022-09-20T15:33:52.803Z,1.77
2022-09-20T15:36:20.323Z,2.08
2022-09-20T15:38:47.692Z,2.83
2022-09-20T15:41:15.742Z,1.30
2022-09-20T15:43:43.507Z,1.42
2022-09-20T15:46:22.830Z,1.20
2022-09-20T15:48:50.793Z,1.83
2022-09-20T15:51:18.277Z,1.55
2022-09-20T15:53:49.501Z,1.43
2022-09-20T15:56:22.433Z,1.60
2022-09-20T15:59:01.116Z,1.63
2022-09-20T16:03:57.695Z,2.10
2022-09-20T16:06:26.122Z,1.43
2022-09-20T16:08:53.492Z,1.45
2022-09-20T16:11:22.891Z,1.40
2022-09-20T16:14:00.759Z,3.33
2022-09-20T16:16:30.544Z,4.10
2022-09-20T16:19:16.510Z,4.00
2022-09-20T16:21:47.310Z,1.97
2022-09-20T16:24:15.372Z,6.87
2022-09-20T16:26:43.747Z,25.07
2022-09-20T16:29:14.907Z,3.42
2022-09-20T16:31:47.537Z,5.13
2022-09-20T16:34:21.086Z,5.80
2022-09-20T16:36:51.078Z,6.53
2022-09-20T16:39:19.975Z,5.43
2022-09-20T16:41:49.430Z,4.40
2022-09-20T16:44:16.877Z,13.70
2022-09-20T16:46:45.655Z,6.80
2022-09-20T16:49:13.725Z,10.75
2022-09-20T16:51:43.102Z,5.97
2022-09-20T16:54:13.716Z,5.07
2022-09-20T16:56:46.786Z,3.23
2022-09-20T16:59:16.026Z,4.13
2022-09-20T17:01:44.821Z,3.25
2022-09-20T17:04:17.689Z,2.20
2022-09-20T17:06:46.302Z,4.73
2022-09-20T17:09:14.571Z,3.83
2022-09-20T17:11:47.496Z,13.68
2022-09-20T17:14:17.430Z,3.67
2022-09-20T17:16:49.333Z,1.90
2022-09-20T17:19:19.718Z,1.57
2022-09-20T17:21:53.086Z,2.30
2022-09-20T17:24:22.779Z,3.00
2022-09-20T17:26:51.079Z,1.52
2022-09-20T17:29:19.966Z,3.35
2022-09-20T17:31:56.811Z,1.97
2022-09-20T17:34:26.560Z,2.60
2022-09-20T17:36:55.321Z,2.42
2022-09-20T17:39:23.365Z,2.30
2022-09-20T17:41:51.553Z,4.47
2022-09-20T17:44:19.575Z,3.55
2022-09-20T17:46:50.112Z,3.47
2022-09-20T17:49:19.927Z,4.07
2022-09-20T17:51:56.782Z,5.10
2022-09-20T17:54:24.818Z,4.87
2022-09-20T17:56:56.398Z,5.82
2022-09-20T17:59:24.832Z,3.97
2022-09-20T18:01:54.615Z,3.30
2022-09-20T18:04:24.670Z,3.50
2022-09-20T18:06:54.619Z,2.97
2022-09-20T18:09:25.057Z,2.87
2022-09-20T18:11:54.098Z,3.50
2022-09-20T18:14:32.780Z,3.07
2022-09-20T18:17:01.559Z,3.17
2022-09-20T18:22:04.265Z,3.10
2022-09-20T18:24:32.418Z,3.10
2022-09-20T18:27:01.106Z,3.80
2022-09-20T18:29:29.484Z,3.33
2022-09-20T18:31:59.838Z,3.92
2022-09-20T18:34:33.680Z,7.77
2022-09-20T18:37:01.786Z,5.17
2022-09-20T18:39:33.798Z,3.97
2022-09-20T18:42:02.751Z,2.90
2022-09-20T18:44:34.400Z,2.30
2022-09-20T18:47:04.119Z,5.07
2022-09-20T18:49:32.283Z,4.22
2022-09-20T18:51:59.635Z,5.20
2022-09-20T18:54:32.108Z,11.43
2022-09-20T18:57:00.208Z,16.73
2022-09-20T18:59:28.338Z,10.35
2022-09-20T19:02:35.878Z,8.70
2022-09-20T19:05:28.864Z,9.90
2022-09-20T19:08:10.428Z,8.73
2022-09-20T19:10:52.264Z,9.07
2022-09-20T19:13:43.318Z,9.47
2022-09-20T19:16:13.945Z,6.83
2022-09-20T19:19:07.558Z,7.33
2022-09-20T19:21:47.499Z,5.43
2022-09-20T19:24:28.322Z,5.73
2022-09-20T19:26:56.171Z,6.23
2022-09-20T19:29:26.919Z,6.40
2022-09-20T19:31:57.129Z,17.93
2022-09-20T19:34:32.594Z,7.23
2022-09-20T19:37:07.301Z,7.43
2022-09-20T19:40:04.478Z,9.53
2022-09-20T19:42:44.067Z,12.33
2022-09-20T19:45:23.809Z,22.13
2022-09-20T19:48:25.445Z,17.27
2022-09-20T19:50:53.735Z,11.47
2022-09-20T19:53:26.833Z,15.87
2022-09-20T19:56:00.255Z,15.07
2022-09-20T19:58:28.314Z,7.23
2022-09-20T20:00:58.370Z,6.55
2022-09-20T20:03:27.640Z,5.53
2022-09-20T20:06:07.888Z,5.12
2022-09-20T20:08:55.097Z,7.60
2022-09-20T20:11:42.065Z,7.80
2022-09-20T20:14:21.382Z,8.37
2022-09-20T20:16:57.744Z,6.57
2022-09-20T20:19:54.476Z,5.77
2022-09-20T20:22:34.192Z,6.47
2022-09-20T20:25:02.091Z,7.00
2022-09-20T20:27:31.465Z,6.87
2022-09-20T20:29:59.010Z,5.90
2022-09-20T20:32:27.078Z,5.10
2022-09-20T20:34:54.407Z,4.60
2022-09-20T20:37:24.125Z,6.00
2022-09-20T20:39:52.294Z,5.30
2022-09-20T20:42:19.886Z,5.17
2022-09-20T20:44:47.686Z,4.90
2022-09-20T20:47:15.419Z,5.70
2022-09-20T20:49:44.017Z,5.05
2022-09-20T20:52:11.469Z,5.87
2022-09-20T20:54:39.188Z,6.47
2022-09-20T20:57:06.556Z,6.33
2022-09-20T20:59:33.880Z,5.80
2022-09-20T21:02:07.116Z,5.33
2022-09-20T21:04:35.469Z,4.73
2022-09-20T21:07:04.351Z,5.17
2022-09-20T21:09:32.259Z,5.28
2022-09-20T21:11:59.680Z,4.80
2022-09-20T21:14:27.411Z,4.53
2022-09-20T21:16:54.725Z,4.80
2022-09-20T21:19:23.072Z,5.63
2022-09-20T21:21:50.697Z,4.82
2022-09-20T21:24:17.886Z,4.40
2022-09-20T21:26:46.684Z,5.07
2022-09-20T21:31:46.863Z,5.27
2022-09-20T21:34:15.927Z,5.20
2022-09-20T21:36:44.750Z,4.78
2022-09-20T21:39:12.578Z,4.97
2022-09-20T21:41:40.599Z,4.37
2022-09-20T21:44:10.456Z,4.87
2022-09-20T21:46:42.639Z,5.30
2022-09-20T21:49:11.866Z,4.40
2022-09-20T21:51:42.252Z,3.83
2022-09-20T21:54:11.079Z,4.07
2022-09-20T21:56:40.508Z,4.45
2022-09-20T21:59:08.059Z,4.40
2022-09-20T22:01:38.245Z,4.37
2022-09-20T22:04:08.501Z,3.63
2022-09-20T22:06:38.585Z,4.37
2022-09-20T22:09:17.358Z,4.13
2022-09-20T22:11:46.943Z,3.70
2022-09-20T22:14:18.386Z,4.20
2022-09-20T22:16:47.391Z,4.07
2022-09-20T22:19:17.458Z,4.47
2022-09-20T22:21:47.110Z,3.90
2022-09-20T22:24:16.166Z,4.70
2022-09-20T22:26:46.150Z,3.95
2022-09-20T22:29:14.081Z,3.50
2022-09-20T22:31:45.752Z,4.25
2022-09-20T22:34:20.227Z,3.33
2022-09-20T22:36:48.572Z,3.60
2022-09-20T22:39:17.233Z,3.70
2022-09-20T22:41:45.237Z,3.47
2022-09-20T22:44:12.810Z,3.33
2022-09-20T22:46:40.644Z,3.43
2022-09-20T22:49:09.509Z,3.10
2022-09-20T22:51:37.645Z,3.17
2022-09-20T22:54:07.325Z,2.70
2022-09-20T22:56:34.789Z,2.63
2022-09-20T22:59:11.043Z,3.07
2022-09-20T23:01:43.979Z,2.50
2022-09-20T23:04:19.061Z,2.40
2022-09-20T23:06:48.108Z,3.27
2022-09-20T23:09:18.113Z,3.83
2022-09-20T23:11:45.762Z,4.03
2022-09-20T23:14:15.574Z,4.20
2022-09-20T23:16:43.697Z,4.10
2022-09-20T23:19:12.283Z,4.00
2022-09-20T23:21:41.199Z,3.53
2022-09-20T23:24:11.048Z,3.37
2022-09-20T23:26:39.759Z,3.37
2022-09-20T23:29:11.033Z,3.83
2022-09-20T23:31:40.255Z,3.77
2022-09-20T23:34:08.833Z,3.70
2022-09-20T23:36:39.609Z,3.83
2022-09-20T23:39:08.458Z,4.03
2022-09-20T23:41:36.866Z,4.62
2022-09-20T23:44:10.031Z,3.95
2022-09-20T23:46:38.561Z,3.73
2022-09-20T23:49:07.002Z,4.33
2022-09-20T23:51:35.666Z,3.70
2022-09-20T23:54:03.993Z,3.42
2022-09-20T23:56:31.311Z,3.57
2022-09-20T23:58:58.547Z,3.83
